Airfield :
LOGIN :

Register | Disclaimer

   EN    FR    IT 

 










Legend :    VFR   Marginal VFR   IFR   Intensive IFR   Very Intensive IFR
Visi :
Ceiling :
>= 8 km
>= 3000ft
5 to 8 km
1000 to 3000 ft
1500m to 5 km
500 to 1000 ft
800 to 1500m
200 to 500 ft
< 800m
< 200 ft
Symbols :   Thunderstorms  Fog  Heavy snow  Heavy precipitations  Wind > 20 kt
SIGMETs :     Misc.  Thunderstorms  Icing  Turbulence  Mountain Waves  Volcanic Ashes







- Airport Elevation : 209 ft
- IATA code : CLY
- Download approach charts


LFKC - Calvi

CURRENT METAR :
  • 241330Z AUTO 25006KT 190V300 9999 FEW026 BKN036 BKN042 24/15 Q1017 NOSIG

EXPIRED METARs :
  • 241300Z AUTO VRB05KT 9999 FEW024 BKN036 BKN044 23/15 Q1017 NOSIG
  • 241230Z AUTO 15004KT 100V190 9999 FEW023 BKN033 BKN039 23/15 Q1017 NOSIG
  • 241200Z AUTO VRB05KT 9999 FEW035 SCT082 23/16 Q1017 NOSIG
  • 241130Z AUTO 35011KT 9999 FEW035 23/16 Q1018 NOSIG
  • 241100Z AUTO 35010KT 280V010 CAVOK 22/14 Q1018 NOSIG

TAF TAF LFKC
Valid from the 24 at 09:00 until the 25 at 09:00 UTC


240800Z 2409/2509 30008KT 9999 FEW030
BECMG 2418/2420 18004KT CAVOK TX24/2412Z TN14/2504Z
ATIS : +33 4 95 65 82 49
No reported NOTAMs for that airfield.



MET'MAP, your aeronautical weather chart ! - Copyright ORBIFLY December 2007 - Disclaimer

ORBIFLY MET'MAP TEAM :

Programming & Development : Alexandra Zaïnal
Concept & Development : Baudouin d'Aumeries
Co-Development & Prog : Marc-Olivier Méhu
Technical & hardware support : Manuel Goepfert

Contact : metmap@orbifly.com




SOURCES & CREDITS :

   NOAA